Time;durP1;ratioP1;P1;durP2;ratioP2;P2;SDS_P1;SDS_P2;PMS_P1;PMS_P2;Temp;Humidity;BMP_temperature;BMP_pressure;BME280_temperature;BME280_humidity;BME280_pressure;Samples;Min_cycle;Max_cycle;Signal;HPM_P1;HPM_P2
2023/04/24 00:00:21;;;;;;;;;4.00;4.00;;;;;12.42;62.46;100075.56;5052773;28;45482;-60
2023/04/24 00:02:47;;;;;;;;;2.00;2.00;;;;;12.27;63.30;100090.66;5054202;28;45348;-60
2023/04/24 00:05:17;;;;;;;;;4.40;3.20;;;;;12.36;64.51;100093.88;5052882;28;45296;-60
2023/04/24 00:07:43;;;;;;;;;3.20;3.20;;;;;11.91;60.38;100076.03;5057476;28;46567;-60
2023/04/24 00:10:09;;;;;;;;;4.00;3.00;;;;;12.09;65.00;100090.75;5055742;28;45309;-61
2023/04/24 00:12:35;;;;;;;;;5.00;2.75;;;;;12.12;63.77;100098.53;5057278;28;45278;-61
2023/04/24 00:15:00;;;;;;;;;3.00;3.00;;;;;12.20;65.90;100095.44;5057426;28;45243;-59
2023/04/24 00:17:26;;;;;;;;;4.00;3.25;;;;;12.32;65.48;100098.19;5057433;28;45348;-59
2023/04/24 00:19:58;;;;;;;;;3.60;3.60;;;;;12.40;65.80;100102.50;5055772;28;45397;-60
2023/04/24 00:22:26;;;;;;;;;3.80;2.60;;;;;12.44;64.91;100104.50;5057163;28;45486;-59
2023/04/24 00:24:52;;;;;;;;;4.80;4.80;;;;;12.37;65.44;100094.72;5055682;28;45466;-60
2023/04/24 00:27:17;;;;;;;;;2.00;2.00;;;;;12.43;63.88;100118.53;5055405;28;47230;-60
2023/04/24 00:29:43;;;;;;;;;6.75;3.75;;;;;12.29;64.93;100094.00;5057696;28;45292;-60
2023/04/24 00:32:08;;;;;;;;;3.00;3.00;;;;;12.28;64.08;100122.59;5056592;28;45555;-60
2023/04/24 00:34:34;;;;;;;;;5.75;3.00;;;;;12.26;63.78;100113.75;5057070;28;45246;-60
2023/04/24 00:37:00;;;;;;;;;3.00;3.00;;;;;12.22;65.18;100111.72;5057141;28;46255;-60
2023/04/24 00:39:25;;;;;;;;;4.00;4.00;;;;;12.36;65.49;100123.31;5057056;28;45695;-59
2023/04/24 00:41:51;;;;;;;;;6.25;4.00;;;;;12.12;61.78;100128.81;5057328;28;45408;-59
2023/04/24 00:44:16;;;;;;;;;4.75;3.25;;;;;12.08;63.42;100128.44;5056158;28;45501;-60
2023/04/24 00:46:42;;;;;;;;;2.25;2.25;;;;;11.99;64.21;100127.06;5039159;28;46519;-60
2023/04/24 00:49:07;;;;;;;;;2.50;2.50;;;;;11.99;65.87;100133.41;5056788;28;45410;-61
2023/04/24 00:51:34;;;;;;;;;2.50;2.50;;;;;11.91;67.00;100142.00;5056817;28;45379;-61
2023/04/24 00:54:00;;;;;;;;;5.00;3.80;;;;;11.69;61.56;100136.22;5072463;28;45183;-61
2023/04/24 00:56:25;;;;;;;;;3.20;3.20;;;;;11.85;65.61;100141.03;5056688;28;46514;-59
2023/04/24 00:58:51;;;;;;;;;3.75;3.75;;;;;11.85;65.80;100124.53;5056769;28;45336;-60
2023/04/24 01:01:18;;;;;;;;;3.25;3.25;;;;;11.94;62.25;100133.28;5057396;28;45310;-62
2023/04/24 01:03:43;;;;;;;;;3.60;3.40;;;;;11.93;66.24;100143.47;5056980;28;45971;-59
2023/04/24 01:06:09;;;;;;;;;2.75;2.75;;;;;11.99;66.35;100146.31;5089652;27;46094;-61
2023/04/24 01:08:34;;;;;;;;;4.50;3.00;;;;;12.12;66.51;100150.81;5038969;28;45671;-61
2023/04/24 01:11:00;;;;;;;;;6.75;4.00;;;;;11.91;64.00;100150.25;5055735;28;45324;-61
2023/04/24 01:13:25;;;;;;;;;4.25;3.00;;;;;11.80;64.75;100144.47;5055519;28;45503;-61
2023/04/24 01:15:51;;;;;;;;;3.50;3.25;;;;;11.90;67.14;100135.66;5056294;28;46550;-60
2023/04/24 01:18:16;;;;;;;;;3.00;2.00;;;;;12.00;66.47;100148.03;5025895;27;45890;-61
2023/04/24 01:20:44;;;;;;;;;3.00;2.25;;;;;11.90;62.70;100119.16;4954523;28;45387;-61
2023/04/24 01:23:10;;;;;;;;;3.00;2.00;;;;;12.14;65.30;100138.50;4996714;28;45323;-61
2023/04/24 01:25:36;;;;;;;;;2.80;2.80;;;;;12.20;65.95;100136.69;5055099;28;45300;-63
2023/04/24 01:28:01;;;;;;;;;2.25;2.25;;;;;12.21;66.82;100141.13;5054790;28;45383;-60
2023/04/24 01:30:27;;;;;;;;;4.25;3.00;;;;;12.14;62.54;100140.41;5056746;28;45268;-60
2023/04/24 01:32:53;;;;;;;;;3.50;3.50;;;;;12.16;66.21;100146.50;5056460;28;45369;-60
2023/04/24 01:35:18;;;;;;;;;7.75;4.00;;;;;12.13;64.00;100139.56;5054897;28;46956;-59
2023/04/24 01:37:44;;;;;;;;;3.00;2.75;;;;;12.17;65.39;100148.19;5054687;28;45321;-60
2023/04/24 01:40:10;;;;;;;;;4.75;3.25;;;;;12.17;65.81;100146.25;5054989;28;45393;-60
2023/04/24 01:42:35;;;;;;;;;3.75;3.75;;;;;12.27;64.04;100158.63;5056707;28;45374;-60
2023/04/24 01:45:03;;;;;;;;;7.00;3.00;;;;;11.97;64.75;100130.06;5088666;27;46835;-60
2023/04/24 01:47:28;;;;;;;;;2.00;2.00;;;;;12.07;64.45;100152.34;5054856;28;45428;-59
2023/04/24 01:49:54;;;;;;;;;1.00;1.00;;;;;12.07;64.05;100162.53;5055287;28;45423;-60
2023/04/24 01:52:19;;;;;;;;;6.00;3.00;;;;;12.13;64.71;100158.84;5055013;28;45465;-59
2023/04/24 01:54:45;;;;;;;;;2.00;2.00;;;;;12.19;63.49;100154.28;5055626;28;46552;-60
2023/04/24 01:57:10;;;;;;;;;3.00;1.75;;;;;12.11;64.60;100151.88;5055819;28;45466;-60
2023/04/24 01:59:36;;;;;;;;;6.25;5.25;;;;;12.17;65.33;100156.44;5056101;28;45336;-60
2023/04/24 02:02:02;;;;;;;;;3.50;3.25;;;;;12.12;64.91;100140.63;5054807;28;45391;-60
2023/04/24 02:04:27;;;;;;;;;1.80;1.80;;;;;12.25;64.22;100180.84;5055841;28;46159;-60
2023/04/24 02:06:53;;;;;;;;;2.00;2.00;;;;;12.26;65.06;100170.66;5056042;28;45371;-60
2023/04/24 02:09:19;;;;;;;;;2.00;2.00;;;;;12.31;65.42;100170.81;5071358;28;45428;-60
2023/04/24 02:11:44;;;;;;;;;2.00;2.00;;;;;12.28;62.95;100177.63;5088517;27;45395;-60
2023/04/24 02:14:10;;;;;;;;;2.00;2.00;;;;;12.19;61.38;100166.16;5055352;28;46297;-60
2023/04/24 02:16:35;;;;;;;;;2.75;2.75;;;;;12.22;64.40;100175.81;5088045;27;45396;-60
2023/04/24 02:19:01;;;;;;;;;3.00;2.00;;;;;12.30;64.96;100181.00;5055487;28;45337;-60
2023/04/24 02:21:27;;;;;;;;;4.60;2.00;;;;;12.19;63.81;100187.31;5055709;28;45364;-60
2023/04/24 02:23:53;;;;;;;;;3.20;2.00;;;;;12.13;65.29;100177.25;5004899;28;45400;-60
2023/04/24 02:26:19;;;;;;;;;3.75;2.50;;;;;12.05;67.01;100184.75;4952127;28;45826;-60
2023/04/24 02:28:44;;;;;;;;;2.00;2.00;;;;;12.05;65.16;100178.41;4953412;28;45316;-60
2023/04/24 02:31:09;;;;;;;;;3.25;2.75;;;;;12.05;66.05;100173.75;4953739;28;45298;-61
2023/04/24 02:33:35;;;;;;;;;3.00;3.00;;;;;12.10;64.77;100166.72;4953168;28;45395;-59
2023/04/24 02:36:02;;;;;;;;;3.75;2.50;;;;;12.17;65.74;100189.47;4953127;28;45366;-60
2023/04/24 02:38:28;;;;;;;;;3.00;3.00;;;;;12.09;66.31;100176.03;4953317;28;45184;-60
2023/04/24 02:40:54;;;;;;;;;3.80;2.20;;;;;12.05;65.28;100205.91;4953625;28;45256;-60
2023/04/24 02:43:20;;;;;;;;;2.50;2.00;;;;;12.09;65.41;100196.13;4953150;28;45630;-59
2023/04/24 02:45:45;;;;;;;;;3.00;3.00;;;;;11.92;66.06;100163.75;4953557;28;45526;-60
2023/04/24 02:48:11;;;;;;;;;3.25;2.00;;;;;12.12;64.62;100192.91;4951893;28;45345;-59
2023/04/24 02:50:36;;;;;;;;;2.50;1.75;;;;;12.19;65.61;100181.78;4953441;28;45499;-59
2023/04/24 02:53:02;;;;;;;;;3.25;2.00;;;;;12.17;63.69;100195.78;4951450;28;45719;-59
2023/04/24 02:55:27;;;;;;;;;4.00;2.00;;;;;12.29;66.16;100211.47;4952991;28;45397;-60
2023/04/24 02:57:53;;;;;;;;;6.75;3.00;;;;;12.29;65.08;100211.47;4952068;28;45342;-60
2023/04/24 03:00:19;;;;;;;;;3.00;3.00;;;;;12.06;63.35;100208.44;4953305;28;45410;-60
2023/04/24 03:02:44;;;;;;;;;4.00;2.75;;;;;12.03;64.63;100206.16;4952746;28;46134;-59
2023/04/24 03:05:11;;;;;;;;;2.00;2.00;;;;;12.18;66.50;100205.72;4953102;28;45494;-59
2023/04/24 03:07:37;;;;;;;;;3.80;3.80;;;;;12.20;65.76;100224.75;4953021;28;45364;-58
2023/04/24 03:10:03;;;;;;;;;3.25;3.25;;;;;12.14;66.22;100217.44;4953211;28;45466;-58
2023/04/24 03:12:29;;;;;;;;;1.40;1.40;;;;;12.18;67.85;100221.38;4952637;28;46365;-58
2023/04/24 03:14:54;;;;;;;;;3.25;2.50;;;;;11.97;65.25;100226.31;4951310;28;45448;-59
2023/04/24 03:17:20;;;;;;;;;3.25;3.00;;;;;11.99;65.86;100224.16;4953059;28;45332;-59
2023/04/24 03:19:45;;;;;;;;;6.75;2.75;;;;;12.14;67.02;100220.19;4974032;28;45845;-59
2023/04/24 03:22:11;;;;;;;;;4.00;4.00;;;;;12.19;66.19;100217.56;4982633;28;45603;-59
2023/04/24 03:24:36;;;;;;;;;1.75;1.75;;;;;12.19;65.71;100214.81;4957510;28;45377;-58
2023/04/24 03:27:02;;;;;;;;;4.00;2.75;;;;;12.22;65.29;100227.25;4952658;28;45420;-59
2023/04/24 03:29:27;;;;;;;;;3.00;2.00;;;;;12.03;63.36;100230.03;4952835;28;45487;-59
2023/04/24 03:31:53;;;;;;;;;4.00;3.00;;;;;11.82;65.13;100214.91;4952255;28;46074;-58
2023/04/24 03:34:18;;;;;;;;;3.25;3.25;;;;;11.83;66.95;100211.91;4952685;28;45478;-59
2023/04/24 03:36:44;;;;;;;;;2.00;2.00;;;;;11.90;63.38;100215.41;4952465;28;45381;-58
2023/04/24 03:39:10;;;;;;;;;3.25;3.00;;;;;11.94;64.77;100218.53;4953261;28;45441;-58
2023/04/24 03:41:35;;;;;;;;;2.00;2.00;;;;;12.04;66.35;100220.75;4951963;28;45249;-58
2023/04/24 03:44:01;;;;;;;;;4.50;3.25;;;;;12.05;65.45;100217.78;4951292;28;45293;-59
2023/04/24 03:46:26;;;;;;;;;4.75;2.50;;;;;12.09;64.44;100220.88;4953005;28;45408;-59
2023/04/24 03:48:51;;;;;;;;;4.25;4.00;;;;;12.14;65.09;100218.28;4952812;28;45564;-58
2023/04/24 03:51:17;;;;;;;;;2.00;2.00;;;;;11.95;63.63;100217.44;4952998;28;45279;-60
2023/04/24 03:53:42;;;;;;;;;4.00;4.00;;;;;11.92;64.58;100227.00;4951060;28;45286;-58
2023/04/24 03:56:08;;;;;;;;;3.75;2.25;;;;;11.90;67.09;100231.09;4951323;28;45243;-58
2023/04/24 03:58:33;;;;;;;;;3.75;3.00;;;;;11.90;66.56;100223.66;4951544;28;45299;-60
2023/04/24 04:00:59;;;;;;;;;2.00;1.00;;;;;11.91;64.77;100246.50;4952142;28;46554;-59
2023/04/24 04:03:25;;;;;;;;;4.00;2.80;;;;;11.95;66.00;100242.19;4952215;28;45314;-58
2023/04/24 04:05:51;;;;;;;;;3.75;2.50;;;;;12.02;63.65;100253.94;4951001;28;45338;-58
2023/04/24 04:08:16;;;;;;;;;3.00;3.00;;;;;11.99;66.20;100254.44;4952599;28;45336;-58
2023/04/24 04:10:42;;;;;;;;;2.00;1.00;;;;;11.78;63.45;100261.25;4952068;28;45751;-58
2023/04/24 04:13:07;;;;;;;;;2.00;2.00;;;;;11.71;65.08;100261.38;4966948;28;45423;-58
2023/04/24 04:15:32;;;;;;;;;3.50;3.50;;;;;11.88;66.24;100261.56;4951035;28;45463;-60
2023/04/24 04:17:58;;;;;;;;;4.25;3.00;;;;;11.93;67.00;100258.97;4967067;28;45318;-60
2023/04/24 04:20:24;;;;;;;;;7.00;3.00;;;;;11.89;63.72;100265.97;4951822;28;45547;-60
2023/04/24 04:22:50;;;;;;;;;8.60;4.00;;;;;11.95;65.44;100266.13;5036842;28;45473;-59
2023/04/24 04:25:15;;;;;;;;;3.25;3.25;;;;;12.01;65.92;100271.53;4987146;27;45348;-59
2023/04/24 04:27:41;;;;;;;;;8.00;3.50;;;;;11.87;65.55;100270.88;4952070;28;45271;-59
2023/04/24 04:30:08;;;;;;;;;3.00;3.00;;;;;11.95;70.00;100277.13;4951924;28;45598;-58
2023/04/24 04:32:37;;;;;;;;;4.80;3.80;;;;;11.91;65.11;100277.59;4966574;28;46226;-61
2023/04/24 04:35:02;;;;;;;;;5.40;3.40;;;;;11.94;65.49;100290.03;4951509;28;45390;-58
2023/04/24 04:37:33;;;;;;;;;6.50;3.25;;;;;11.96;67.73;100289.81;4951978;28;45522;-58
2023/04/24 04:39:58;;;;;;;;;3.60;3.60;;;;;11.89;66.30;100287.13;4951673;28;45294;-60
2023/04/24 04:42:24;;;;;;;;;3.00;2.00;;;;;11.90;64.80;100297.91;4951485;28;45441;-59
2023/04/24 04:44:50;;;;;;;;;4.00;4.00;;;;;12.02;67.33;100294.38;4952012;28;45229;-58
2023/04/24 04:47:17;;;;;;;;;4.00;4.00;;;;;12.14;66.86;100298.06;4951840;28;45641;-59
2023/04/24 04:49:42;;;;;;;;;2.80;2.80;;;;;12.16;67.04;100297.78;4981972;28;47468;-60
2023/04/24 04:52:08;;;;;;;;;4.00;4.00;;;;;12.18;66.97;100310.25;4982863;28;45428;-60
2023/04/24 04:54:34;;;;;;;;;4.00;4.00;;;;;12.17;67.04;100308.56;4954882;28;45984;-59
2023/04/24 04:57:00;;;;;;;;;4.00;4.00;;;;;11.97;63.55;100308.84;4954883;28;45394;-59
2023/04/24 04:59:26;;;;;;;;;4.20;3.60;;;;;12.04;66.96;100319.75;4953969;28;46342;-60
2023/04/24 05:01:51;;;;;;;;;3.00;2.80;;;;;12.14;68.34;100313.72;4954627;28;45320;-59
2023/04/24 05:04:17;;;;;;;;;6.00;5.50;;;;;12.00;66.19;100300.09;4952834;28;45404;-59
2023/04/24 05:06:42;;;;;;;;;5.00;5.00;;;;;12.16;66.38;100323.41;4953473;28;45345;-60
2023/04/24 05:09:08;;;;;;;;;3.25;3.25;;;;;12.20;67.30;100330.13;4954319;28;46316;-59
2023/04/24 05:11:33;;;;;;;;;4.00;2.75;;;;;12.25;66.51;100323.06;4953111;28;45326;-58
2023/04/24 05:13:59;;;;;;;;;3.50;3.25;;;;;12.06;65.68;100334.97;4954651;28;45366;-60
2023/04/24 05:16:24;;;;;;;;;4.00;4.00;;;;;12.05;64.60;100343.44;4954132;28;45319;-60
2023/04/24 05:18:50;;;;;;;;;7.50;5.25;;;;;12.10;67.12;100329.03;4954216;28;45845;-60
2023/04/24 05:21:15;;;;;;;;;5.00;4.00;;;;;12.07;66.20;100352.31;4954137;28;45436;-60
2023/04/24 05:23:41;;;;;;;;;4.00;4.00;;;;;12.12;66.81;100354.38;4979194;28;45392;-60
2023/04/24 05:26:06;;;;;;;;;4.50;4.50;;;;;12.02;67.64;100352.13;5056440;28;45321;-60
2023/04/24 05:28:32;;;;;;;;;7.75;5.50;;;;;12.08;67.19;100370.50;5054707;28;46268;-60
2023/04/24 05:30:59;;;;;;;;;9.75;7.75;;;;;12.07;66.59;100368.81;5056477;28;45365;-60
2023/04/24 05:33:24;;;;;;;;;4.80;4.80;;;;;12.01;66.64;100359.53;5056163;28;45352;-60
2023/04/24 05:35:50;;;;;;;;;5.00;4.75;;;;;11.99;64.65;100371.84;5056598;28;45304;-60
2023/04/24 05:38:19;;;;;;;;;10.00;8.25;;;;;11.83;63.78;100389.78;5056330;28;46069;-60
2023/04/24 05:40:45;;;;;;;;;5.00;5.00;;;;;11.91;66.27;100392.25;5056218;28;45198;-60
2023/04/24 05:43:10;;;;;;;;;9.50;7.75;;;;;12.06;67.98;100392.72;5056540;28;45204;-60
2023/04/24 05:45:36;;;;;;;;;7.25;6.00;;;;;12.12;68.31;100388.22;5056482;28;45411;-59
2023/04/24 05:48:02;;;;;;;;;9.00;6.50;;;;;12.12;68.01;100399.22;5056166;28;45364;-61
2023/04/24 05:50:28;;;;;;;;;9.00;7.80;;;;;12.16;66.90;100399.59;5088709;27;45576;-60
2023/04/24 05:52:53;;;;;;;;;10.00;7.25;;;;;11.97;65.43;100407.84;5056407;28;45319;-60
2023/04/24 05:55:19;;;;;;;;;9.25;7.00;;;;;12.05;66.60;100407.56;5056205;28;45542;-60
2023/04/24 05:57:45;;;;;;;;;7.25;7.25;;;;;11.91;65.95;100406.84;5055826;28;45653;-59
2023/04/24 06:00:12;;;;;;;;;8.00;6.40;;;;;11.91;68.39;100417.00;5056157;28;45302;-60
2023/04/24 06:02:38;;;;;;;;;9.40;9.40;;;;;11.97;67.28;100418.00;5055832;28;45336;-60
2023/04/24 06:05:04;;;;;;;;;9.60;8.20;;;;;11.93;67.23;100423.13;5055958;28;45549;-59
2023/04/24 06:07:30;;;;;;;;;8.40;7.20;;;;;11.91;63.93;100434.34;5056187;28;47537;-60
2023/04/24 06:09:56;;;;;;;;;7.40;7.40;;;;;11.93;68.37;100423.97;5055636;28;45542;-60
2023/04/24 06:12:22;;;;;;;;;6.25;5.50;;;;;12.13;68.96;100438.56;5088657;27;45452;-61
2023/04/24 06:14:48;;;;;;;;;8.25;8.25;;;;;12.09;65.73;100431.84;5054334;28;45420;-60
2023/04/24 06:17:13;;;;;;;;;9.00;8.50;;;;;11.97;65.99;100426.25;5056116;28;47450;-60
2023/04/24 06:19:39;;;;;;;;;12.75;11.00;;;;;11.99;66.92;100443.34;5054077;28;45317;-60
2023/04/24 06:22:04;;;;;;;;;8.25;8.25;;;;;12.06;67.68;100430.38;5055706;28;45230;-60
2023/04/24 06:24:30;;;;;;;;;8.75;8.75;;;;;12.13;66.13;100444.94;5030097;27;45552;-60
2023/04/24 06:26:58;;;;;;;;;11.25;7.75;;;;;12.14;66.92;100446.59;4953348;28;46056;-60
2023/04/24 06:29:24;;;;;;;;;10.80;10.00;;;;;12.32;67.97;100453.16;4953540;28;45376;-60
2023/04/24 06:31:49;;;;;;;;;10.50;8.50;;;;;12.24;65.92;100465.34;4951882;28;45237;-60
2023/04/24 06:34:15;;;;;;;;;10.50;9.25;;;;;12.20;66.64;100455.84;4953814;28;45606;-60
2023/04/24 06:36:41;;;;;;;;;4.75;3.50;;;;;12.39;67.06;100466.84;4953301;28;45697;-59
2023/04/24 06:39:06;;;;;;;;;11.00;11.00;;;;;12.43;67.07;100470.81;4953251;28;45380;-60
2023/04/24 06:41:32;;;;;;;;;12.50;10.25;;;;;12.44;65.70;100467.81;4953800;28;45343;-60
2023/04/24 06:43:57;;;;;;;;;12.00;10.25;;;;;12.31;64.16;100466.09;4953605;28;45581;-58
2023/04/24 06:46:25;;;;;;;;;10.25;9.00;;;;;12.24;67.03;100459.81;4953224;28;45430;-60
2023/04/24 06:48:52;;;;;;;;;9.20;9.20;;;;;12.19;64.66;100476.19;4953429;28;45451;-60
2023/04/24 06:51:18;;;;;;;;;9.00;8.00;;;;;12.31;66.63;100471.59;4953615;28;45424;-61
2023/04/24 06:53:43;;;;;;;;;12.50;10.75;;;;;12.38;67.24;100476.19;4953387;28;45371;-59
2023/04/24 06:56:09;;;;;;;;;9.75;9.75;;;;;12.41;65.81;100486.72;4952939;28;46014;-59
2023/04/24 06:58:34;;;;;;;;;9.50;9.50;;;;;12.41;65.47;100489.47;4953690;28;45441;-59
2023/04/24 07:01:00;;;;;;;;;9.75;9.75;;;;;12.42;66.10;100480.97;4953289;28;45326;-59
2023/04/24 07:03:25;;;;;;;;;11.25;11.00;;;;;12.50;63.27;100471.59;4941879;28;45317;-59
2023/04/24 07:05:51;;;;;;;;;17.00;12.00;;;;;12.57;67.09;100480.59;4945149;28;48182;-60
2023/04/24 07:08:17;;;;;;;;;17.25;11.00;;;;;12.65;65.64;100484.09;4952063;28;45438;-60
2023/04/24 07:10:43;;;;;;;;;10.60;10.60;;;;;12.73;65.98;100487.38;4953105;28;45413;-59
2023/04/24 07:13:09;;;;;;;;;12.60;12.60;;;;;12.81;66.71;100490.88;4953184;28;45208;-59
2023/04/24 07:15:35;;;;;;;;;10.75;10.75;;;;;12.65;62.09;100484.91;4951878;28;47309;-59
2023/04/24 07:18:00;;;;;;;;;10.50;10.50;;;;;12.77;66.29;100492.41;4951690;28;45432;-59
2023/04/24 07:20:26;;;;;;;;;13.25;12.75;;;;;12.61;66.15;100472.72;4952818;28;45362;-61
2023/04/24 07:22:53;;;;;;;;;19.00;16.00;;;;;12.62;64.73;100479.88;4953693;28;45572;-59
2023/04/24 07:25:19;;;;;;;;;21.40;18.60;;;;;12.69;63.38;100479.78;5026101;28;46150;-60
2023/04/24 07:27:44;;;;;;;;;12.75;9.50;;;;;12.72;64.31;100499.44;5087261;27;45391;-59
2023/04/24 07:30:10;;;;;;;;;15.25;12.25;;;;;12.61;63.13;100480.97;5054427;28;45345;-59
2023/04/24 07:32:36;;;;;;;;;16.80;12.80;;;;;12.69;66.04;100497.16;5087201;27;45570;-59
2023/04/24 07:35:01;;;;;;;;;12.75;12.50;;;;;12.76;65.91;100504.50;5053938;28;46330;-60
2023/04/24 07:37:28;;;;;;;;;17.20;15.60;;;;;12.80;65.74;100495.53;5053905;28;45431;-60
2023/04/24 07:39:54;;;;;;;;;18.00;15.75;;;;;12.80;62.63;100490.03;5054695;28;45447;-59
2023/04/24 07:42:20;;;;;;;;;12.80;11.20;;;;;12.82;65.44;100498.06;5025256;28;45735;-60
2023/04/24 07:44:47;;;;;;;;;14.25;14.25;;;;;12.86;65.76;100502.03;4967357;27;46709;-59
2023/04/24 07:47:15;;;;;;;;;17.00;13.00;;;;;12.87;65.86;100504.53;4949912;28;45288;-58
2023/04/24 07:49:41;;;;;;;;;16.80;13.20;;;;;13.07;66.57;100516.38;4951181;28;45366;-58
2023/04/24 07:52:07;;;;;;;;;14.40;11.80;;;;;13.10;65.67;100511.22;4950136;28;45513;-57
2023/04/24 07:54:32;;;;;;;;;18.75;15.75;;;;;13.00;64.71;100511.78;4950503;28;46022;-59
2023/04/24 07:56:58;;;;;;;;;18.00;11.75;;;;;13.11;66.65;100515.66;4951094;28;45208;-59
2023/04/24 07:59:23;;;;;;;;;12.25;12.25;;;;;13.02;62.10;100515.13;4950690;28;45456;-60
2023/04/24 08:01:48;;;;;;;;;17.25;14.00;;;;;12.87;65.39;100523.81;4952713;28;45574;-61
2023/04/24 08:04:14;;;;;;;;;17.25;16.25;;;;;12.92;65.24;100522.28;4950667;28;45539;-61
2023/04/24 08:06:40;;;;;;;;;21.25;17.50;;;;;12.94;66.75;100517.38;5035525;28;45500;-60
2023/04/24 08:09:05;;;;;;;;;50.75;33.50;;;;;13.06;65.00;100525.69;5068838;28;45408;-61
2023/04/24 08:11:32;;;;;;;;;26.50;23.00;;;;;13.13;67.27;100534.72;5054426;28;45412;-58
2023/04/24 08:13:58;;;;;;;;;27.80;25.20;;;;;13.28;66.43;100534.25;5053683;28;45459;-58
2023/04/24 08:16:23;;;;;;;;;17.25;13.50;;;;;13.28;64.75;100526.00;5053700;28;45224;-59
2023/04/24 08:18:49;;;;;;;;;24.00;17.50;;;;;13.39;65.59;100538.97;5053944;28;45239;-58
2023/04/24 08:21:17;;;;;;;;;15.80;15.80;;;;;13.48;65.74;100535.91;5054407;28;45427;-58
2023/04/24 08:23:43;;;;;;;;;19.40;16.00;;;;;13.55;65.57;100528.34;5053541;28;45810;-58
2023/04/24 08:26:08;;;;;;;;;28.80;24.80;;;;;13.65;66.15;100538.81;4953356;28;45493;-58
2023/04/24 08:28:34;;;;;;;;;18.00;17.00;;;;;13.47;61.72;100540.59;4955118;28;45476;-60
2023/04/24 08:31:00;;;;;;;;;24.25;19.00;;;;;13.54;64.64;100535.81;4955135;28;45330;-58
2023/04/24 08:33:25;;;;;;;;;19.00;11.75;;;;;13.45;61.96;100528.09;4955143;28;45448;-59
2023/04/24 08:35:51;;;;;;;;;23.75;20.00;;;;;13.52;62.66;100528.84;4954572;28;45325;-59
2023/04/24 08:38:17;;;;;;;;;53.00;36.75;;;;;13.74;64.14;100533.78;4953592;28;45347;-60
2023/04/24 08:40:43;;;;;;;;;22.25;21.00;;;;;13.68;62.74;100536.41;4954796;28;45301;-60
2023/04/24 08:43:08;;;;;;;;;19.40;15.00;;;;;13.78;59.91;100546.03;4954813;28;45726;-60
2023/04/24 08:45:34;;;;;;;;;21.75;17.25;;;;;13.68;62.81;100535.59;4937462;28;45326;-60
2023/04/24 08:47:59;;;;;;;;;20.50;17.25;;;;;13.75;65.11;100549.25;4954863;28;45262;-59
2023/04/24 08:50:25;;;;;;;;;20.00;19.00;;;;;13.76;65.10;100549.03;4955193;28;45387;-60
2023/04/24 08:52:53;;;;;;;;;14.00;13.00;;;;;13.82;61.90;100541.69;4941942;28;45582;-60
2023/04/24 08:55:20;;;;;;;;;16.80;16.80;;;;;13.92;62.67;100535.59;4943038;28;45758;-60
2023/04/24 08:57:49;;;;;;;;;17.20;16.60;;;;;14.07;62.74;100540.63;4953032;28;45482;-61
2023/04/24 09:00:15;;;;;;;;;16.00;13.60;;;;;14.21;62.34;100530.19;4953004;28;45425;-60
2023/04/24 09:02:45;;;;;;;;;22.60;18.80;;;;;14.38;61.48;100538.56;4969253;28;45810;-60
2023/04/24 09:05:11;;;;;;;;;22.40;18.20;;;;;14.53;63.90;100537.22;4954092;28;45487;-59
2023/04/24 09:07:37;;;;;;;;;19.60;15.20;;;;;14.36;64.88;100535.22;4966471;28;45493;-60
2023/04/24 09:10:03;;;;;;;;;19.80;18.20;;;;;14.30;60.88;100544.47;4951927;28;45338;-59
2023/04/24 09:12:28;;;;;;;;;17.00;16.00;;;;;14.22;59.54;100543.75;4946297;28;46061;-60
2023/04/24 09:14:55;;;;;;;;;34.75;29.25;;;;;14.18;61.81;100531.50;4942110;28;45346;-59
2023/04/24 09:17:22;;;;;;;;;20.20;17.00;;;;;14.40;62.12;100549.38;4950566;28;45420;-59
2023/04/24 09:19:48;;;;;;;;;15.00;15.00;;;;;14.42;60.79;100547.22;4995541;28;45624;-59
2023/04/24 09:22:14;;;;;;;;;17.00;14.60;;;;;14.55;62.11;100552.47;4951690;27;46171;-56
2023/04/24 09:24:40;;;;;;;;;16.40;15.20;;;;;14.60;60.37;100558.09;4981473;28;45549;-57
2023/04/24 09:27:06;;;;;;;;;17.00;15.00;;;;;14.44;60.71;100558.84;5069279;28;45443;-57
2023/04/24 09:29:32;;;;;;;;;17.75;12.75;;;;;14.40;60.58;100563.19;4980299;28;45352;-59
2023/04/24 09:31:58;;;;;;;;;15.00;14.60;;;;;14.32;56.03;100568.00;4974267;28;45836;-59
2023/04/24 09:34:25;;;;;;;;;19.20;16.80;;;;;14.31;59.23;100568.22;4949792;28;45441;-60
2023/04/24 09:36:51;;;;;;;;;14.60;12.80;;;;;14.38;60.86;100560.66;4945162;28;45688;-60
2023/04/24 09:39:20;;;;;;;;;19.40;17.20;;;;;14.42;60.89;100570.16;4951131;28;45826;-60
2023/04/24 09:41:53;;;;;;;;;18.20;13.20;;;;;14.47;60.91;100569.41;4951555;28;47057;-60
2023/04/24 09:44:22;;;;;;;;;16.40;16.40;;;;;14.58;61.93;100563.00;4944975;28;45464;-60
2023/04/24 09:46:51;;;;;;;;;14.60;13.80;;;;;14.54;61.99;100560.97;4933409;28;45279;-61
2023/04/24 09:49:27;;;;;;;;;20.20;16.60;;;;;14.62;63.10;100571.69;4949339;28;45515;-60
2023/04/24 09:52:02;;;;;;;;;15.20;15.00;;;;;14.70;61.07;100565.78;4959775;28;51559;-60
2023/04/24 09:54:29;;;;;;;;;14.80;13.80;;;;;14.72;61.64;100574.66;4958920;28;45437;-61
2023/04/24 09:56:55;;;;;;;;;18.40;16.20;;;;;14.70;61.15;100567.69;4951147;28;45408;-60
2023/04/24 09:59:20;;;;;;;;;17.75;15.00;;;;;14.84;60.98;100573.81;4932241;28;45926;-60
2023/04/24 10:01:46;;;;;;;;;16.75;14.25;;;;;14.92;61.03;100570.66;4933803;28;46338;-58
2023/04/24 10:04:19;;;;;;;;;22.50;19.50;;;;;15.12;59.98;100572.16;4961667;28;46127;-59
2023/04/24 10:06:45;;;;;;;;;20.80;17.40;;;;;15.16;61.36;100556.75;4934102;28;45434;-60
2023/04/24 10:09:12;;;;;;;;;19.25;16.00;;;;;15.26;59.10;100575.47;4967885;28;45685;-60
2023/04/24 10:11:38;;;;;;;;;13.60;13.60;;;;;15.35;59.88;100570.34;4968681;28;46793;-60
2023/04/24 10:14:03;;;;;;;;;14.60;14.40;;;;;15.45;58.68;100573.31;4983216;27;45994;-60
2023/04/24 10:16:29;;;;;;;;;17.75;17.75;;;;;15.49;58.63;100577.28;4965570;28;45440;-59
2023/04/24 10:18:55;;;;;;;;;15.50;14.25;;;;;15.62;58.67;100573.31;4972813;28;45654;-58
2023/04/24 10:21:21;;;;;;;;;13.50;13.00;;;;;15.68;57.23;100568.72;4964937;28;48234;-60
2023/04/24 10:23:47;;;;;;;;;14.60;13.80;;;;;15.73;53.78;100579.88;4951937;28;45423;-60
2023/04/24 10:26:17;;;;;;;;;18.00;15.25;;;;;15.41;55.38;100564.69;5052311;28;45784;-63
2023/04/24 10:28:44;;;;;;;;;15.00;15.00;;;;;15.59;56.88;100571.91;4953940;28;45345;-61
2023/04/24 10:31:10;;;;;;;;;14.40;14.40;;;;;15.69;56.89;100574.00;5000742;27;45469;-61
2023/04/24 10:33:35;;;;;;;;;15.75;14.50;;;;;15.81;56.94;100573.91;4956792;28;45863;-61
2023/04/24 10:36:01;;;;;;;;;17.00;15.00;;;;;15.99;57.02;100575.66;4960562;28;45406;-60
2023/04/24 10:38:27;;;;;;;;;16.20;16.20;;;;;16.20;57.90;100580.63;4984183;28;45646;-60
2023/04/24 10:41:22;;;;;;;;;14.20;14.20;;;;;16.21;56.61;100572.09;4953745;28;47230;-61
2023/04/24 10:43:50;;;;;;;;;15.00;14.40;;;;;16.11;54.65;100574.69;4971622;28;45501;-60
2023/04/24 10:46:22;;;;;;;;;14.40;14.20;;;;;15.91;56.37;100569.66;4978130;28;45694;-60
2023/04/24 10:48:56;;;;;;;;;18.60;17.80;;;;;15.92;56.05;100577.75;4963941;28;45617;-60
2023/04/24 10:51:53;;;;;;;;;17.40;15.80;;;;;15.89;58.53;100586.50;4953777;28;46560;-60
2023/04/24 10:54:30;;;;;;;;;13.80;12.60;;;;;15.86;57.28;100576.78;4935050;28;45489;-60
2023/04/24 10:57:17;;;;;;;;;13.60;12.20;;;;;15.86;55.35;100567.66;4949915;28;45421;-64
2023/04/24 10:59:43;;;;;;;;;15.00;13.80;;;;;15.95;52.18;100571.69;4952389;28;45355;-63
2023/04/24 11:02:09;;;;;;;;;14.50;14.50;;;;;16.20;56.45;100564.03;4950653;28;46093;-62
2023/04/24 11:04:37;;;;;;;;;11.25;11.25;;;;;16.23;55.68;100546.91;4951847;28;45344;-60
2023/04/24 11:07:03;;;;;;;;;15.40;13.40;;;;;16.43;54.54;100565.75;4952271;28;45551;-61
2023/04/24 11:09:32;;;;;;;;;10.60;9.80;;;;;16.39;54.68;100562.66;4955123;28;45462;-61
2023/04/24 11:12:11;;;;;;;;;12.80;12.80;;;;;16.32;56.16;100550.09;4951442;28;45746;-61
2023/04/24 11:15:02;;;;;;;;;13.60;13.60;;;;;16.47;56.87;100552.22;4951127;28;45293;-60